Time;durP1;ratioP1;P1;durP2;ratioP2;P2;SDS_P1;SDS_P2;PMS_P1;PMS_P2;Temp;Humidity;BMP_temperature;BMP_pressure;BME280_temperature;BME280_humidity;BME280_pressure;Samples;Min_cycle;Max_cycle;Signal;HPM_P1;HPM_P2
2022/11/26 00:00:24;;;;;;;22.73;10.35;;;10.10;99.90;;;;;;5011493;28;20049;-77
2022/11/26 00:02:53;;;;;;;28.02;9.70;;;10.00;99.90;;;;;;5008759;28;20050;-78
2022/11/26 00:05:20;;;;;;;22.83;9.60;;;10.00;99.90;;;;;;5010023;28;20462;-77
2022/11/26 00:07:52;;;;;;;30.60;10.48;;;10.10;99.90;;;;;;5018670;28;20041;-77
2022/11/26 00:10:22;;;;;;;28.50;9.65;;;10.10;99.90;;;;;;5016638;28;20413;-77
2022/11/26 00:12:48;;;;;;;22.63;9.27;;;10.00;99.90;;;;;;5011835;28;20044;-77
2022/11/26 00:15:19;;;;;;;25.70;9.93;;;10.00;99.90;;;;;;5010235;28;20038;-77
2022/11/26 00:17:45;;;;;;;30.55;10.35;;;10.00;99.90;;;;;;5011346;28;20472;-77
2022/11/26 00:20:14;;;;;;;20.75;8.88;;;10.00;99.90;;;;;;5007523;28;20045;-77
2022/11/26 00:22:43;;;;;;;27.65;9.75;;;10.00;99.90;;;;;;5010582;28;20041;-77
2022/11/26 00:25:15;;;;;;;19.67;9.38;;;10.00;99.90;;;;;;5007677;28;20042;-77
2022/11/26 00:27:42;;;;;;;24.73;8.68;;;9.90;99.90;;;;;;5022776;28;20076;-77
2022/11/26 00:30:16;;;;;;;27.20;9.38;;;10.00;99.90;;;;;;5010864;28;20041;-77
2022/11/26 00:32:42;;;;;;;25.73;9.23;;;9.90;99.90;;;;;;5009146;28;20050;-77
2022/11/26 00:35:09;;;;;;;26.23;10.40;;;10.00;99.90;;;;;;5010356;28;20037;-77
2022/11/26 00:37:40;;;;;;;28.90;10.00;;;10.00;99.90;;;;;;5017871;28;20547;-78
2022/11/26 00:40:10;;;;;;;27.67;9.83;;;10.10;99.90;;;;;;5017959;28;20461;-77
2022/11/26 00:42:38;;;;;;;22.25;9.05;;;10.00;99.90;;;;;;5017291;28;20041;-77
2022/11/26 00:45:17;;;;;;;24.48;9.73;;;10.10;99.90;;;;;;5016231;28;20437;-77
2022/11/26 00:47:47;;;;;;;20.15;9.40;;;10.00;99.90;;;;;;5021592;28;20434;-78
2022/11/26 00:50:15;;;;;;;23.23;10.23;;;10.00;99.90;;;;;;5019097;28;20045;-78
2022/11/26 00:52:44;;;;;;;27.17;10.23;;;10.00;99.90;;;;;;5018685;28;20045;-77
2022/11/26 00:55:26;;;;;;;28.02;10.13;;;10.00;99.90;;;;;;5017568;28;20055;-77
2022/11/26 00:57:53;;;;;;;29.73;9.57;;;10.30;99.90;;;;;;5033717;22;20046;-79
2022/11/26 01:00:22;;;;;;;32.08;10.70;;;10.10;99.90;;;;;;5007919;28;20137;-79
2022/11/26 01:02:49;;;;;;;24.65;9.27;;;10.00;99.90;;;;;;5020986;28;20051;-79
2022/11/26 01:05:17;;;;;;;29.05;9.52;;;10.10;99.90;;;;;;5021871;28;20057;-79
2022/11/26 01:07:46;;;;;;;26.95;10.07;;;10.10;99.90;;;;;;5017856;28;20418;-79
2022/11/26 01:10:22;;;;;;;25.45;9.98;;;10.10;99.90;;;;;;5013647;28;20052;-79
2022/11/26 01:13:17;;;;;;;26.88;9.70;;;10.10;99.90;;;;;;5013600;28;20045;-79
2022/11/26 01:15:44;;;;;;;28.92;10.30;;;10.10;99.90;;;;;;5004847;28;20045;-79
2022/11/26 01:18:13;;;;;;;32.65;9.68;;;10.20;99.90;;;;;;5017284;28;20038;-79
2022/11/26 01:20:40;;;;;;;32.00;9.45;;;10.20;99.90;;;;;;5007327;28;20084;-79
2022/11/26 01:23:13;;;;;;;25.98;9.52;;;10.20;99.90;;;;;;5018838;28;20045;-79
2022/11/26 01:25:41;;;;;;;25.25;9.75;;;10.20;99.90;;;;;;5006180;28;20048;-79
2022/11/26 01:28:12;;;;;;;22.27;8.70;;;10.30;99.90;;;;;;5021175;28;20033;-79
2022/11/26 01:30:39;;;;;;;31.50;9.32;;;10.20;99.90;;;;;;5006560;28;20049;-80
2022/11/26 01:33:06;;;;;;;21.08;9.45;;;10.30;99.90;;;;;;5004592;28;20042;-80
2022/11/26 01:35:33;;;;;;;23.02;8.43;;;10.30;99.90;;;;;;5003775;28;20042;-79
2022/11/26 01:38:00;;;;;;;29.33;9.32;;;10.30;99.90;;;;;;5019041;28;20053;-79
2022/11/26 01:40:39;;;;;;;25.23;9.02;;;10.30;99.90;;;;;;5013989;28;20045;-79
2022/11/26 01:43:09;;;;;;;23.38;8.90;;;10.30;99.90;;;;;;5008039;28;20054;-79
2022/11/26 01:45:36;;;;;;;22.60;9.48;;;10.30;99.90;;;;;;5014963;28;20050;-79
2022/11/26 01:48:06;;;;;;;22.38;9.05;;;10.30;99.90;;;;;;5013259;28;20052;-79
2022/11/26 01:51:01;;;;;;;24.27;9.10;;;10.30;99.90;;;;;;5020279;28;20034;-79
2022/11/26 01:53:37;;;;;;;28.33;9.30;;;10.30;99.90;;;;;;5013866;28;20522;-79
2022/11/26 01:56:13;;;;;;;23.05;8.75;;;10.30;99.90;;;;;;5016743;28;20050;-80
2022/11/26 01:58:43;;;;;;;30.60;9.38;;;10.30;99.90;;;;;;5014579;28;20042;-79
2022/11/26 02:01:10;;;;;;;25.88;9.27;;;10.30;99.90;;;;;;5016733;28;20407;-79
2022/11/26 02:03:42;;;;;;;27.20;9.52;;;10.30;99.90;;;;;;5014426;28;20046;-79
2022/11/26 02:06:14;;;;;;;24.85;8.32;;;10.30;99.90;;;;;;5001310;28;20428;-79
2022/11/26 02:08:41;;;;;;;24.92;9.70;;;10.20;99.90;;;;;;5017357;28;20041;-79
2022/11/26 02:11:18;;;;;;;30.55;8.85;;;10.20;99.90;;;;;;5017108;28;20490;-80
2022/11/26 02:13:46;;;;;;;23.23;8.43;;;10.20;99.90;;;;;;5018339;28;20124;-79
2022/11/26 02:16:30;;;;;;;28.10;9.48;;;10.20;99.90;;;;;;5009778;28;20037;-79
2022/11/26 02:19:10;;;;;;;25.60;8.75;;;10.20;99.90;;;;;;5017688;28;20075;-79
2022/11/26 02:21:38;;;;;;;20.15;8.02;;;10.20;99.90;;;;;;5006529;28;20466;-79
2022/11/26 02:24:17;;;;;;;27.73;9.48;;;10.20;99.90;;;;;;5009754;28;21360;-79
2022/11/26 02:27:01;;;;;;;26.27;9.15;;;10.20;99.90;;;;;;5013211;28;20049;-79
2022/11/26 02:29:56;;;;;;;30.02;8.70;;;10.10;99.90;;;;;;5009153;28;20398;-79
2022/11/26 02:33:02;;;;;;;;;;;;;;;;;;;;;
2022/11/26 02:35:37;;;;;;;22.70;8.20;;;10.10;99.90;;;;;;5016186;28;20124;-79
2022/11/26 02:38:06;;;;;;;29.25;9.30;;;10.10;99.90;;;;;;5014746;28;20065;-79
2022/11/26 02:40:33;;;;;;;28.83;8.32;;;10.10;99.90;;;;;;5004473;28;20052;-79
2022/11/26 02:43:00;;;;;;;29.90;7.95;;;10.00;99.90;;;;;;5008288;28;20466;-79
2022/11/26 02:45:31;;;;;;;32.08;8.98;;;10.00;99.90;;;;;;4999331;28;20043;-79
2022/11/26 02:48:01;;;;;;;25.15;8.57;;;9.90;99.90;;;;;;5011116;28;20512;-79
2022/11/26 02:50:32;;;;;;;24.40;8.75;;;9.90;99.90;;;;;;5008469;28;20046;-79
2022/11/26 02:52:59;;;;;;;;;;;9.90;99.90;;;;;;5011932;28;20114;-79
2022/11/26 02:55:30;;;;;;;20.95;7.63;;;9.90;99.90;;;;;;5018310;28;19924;-79
2022/11/26 02:57:58;;;;;;;21.00;7.13;;;9.90;99.90;;;;;;5021092;28;20502;-79
2022/11/26 03:00:25;;;;;;;21.20;7.60;;;9.90;99.90;;;;;;5019199;28;20117;-79
2022/11/26 03:02:57;;;;;;;25.83;7.88;;;9.80;99.90;;;;;;5024390;28;20113;-79
2022/11/26 03:05:24;;;;;;;19.60;7.90;;;9.80;99.90;;;;;;5015571;28;20412;-79
2022/11/26 03:07:53;;;;;;;33.17;9.40;;;9.80;99.90;;;;;;5013265;28;20039;-79
2022/11/26 03:10:20;;;;;;;26.15;7.85;;;9.80;99.90;;;;;;5015626;28;20037;-79
2022/11/26 03:12:47;;;;;;;28.00;7.68;;;9.70;99.90;;;;;;5015775;28;20052;-79
2022/11/26 03:15:14;;;;;;;28.02;8.68;;;9.80;99.90;;;;;;5016855;28;20041;-79
2022/11/26 03:17:41;;;;;;;23.27;8.10;;;9.70;99.90;;;;;;5019242;28;20058;-79
2022/11/26 03:20:10;;;;;;;22.77;8.10;;;9.70;99.90;;;;;;5019873;28;20049;-79
2022/11/26 03:22:37;;;;;;;24.35;8.30;;;9.70;99.90;;;;;;5018684;28;20046;-79
2022/11/26 03:25:04;;;;;;;29.60;9.27;;;9.70;99.90;;;;;;5008965;28;20041;-79
2022/11/26 03:27:31;;;;;;;29.17;8.82;;;9.70;99.90;;;;;;5020468;28;20121;-79
2022/11/26 03:29:58;;;;;;;23.30;9.20;;;9.70;99.90;;;;;;5020234;28;20092;-79
2022/11/26 03:32:25;;;;;;;27.45;8.57;;;9.70;99.90;;;;;;5023751;28;20037;-79
2022/11/26 03:34:52;;;;;;;24.67;8.15;;;9.70;99.90;;;;;;5014856;28;20077;-79
2022/11/26 03:37:21;;;;;;;26.50;9.45;;;9.70;99.90;;;;;;5024170;28;20421;-79
2022/11/26 03:39:47;;;;;;;27.90;8.38;;;9.70;99.90;;;;;;5015889;28;20516;-79
2022/11/26 03:42:14;;;;;;;22.60;8.95;;;9.70;99.90;;;;;;5017941;28;20064;-79
2022/11/26 03:44:41;;;;;;;29.48;10.35;;;9.70;99.90;;;;;;5012136;28;20038;-79
2022/11/26 03:47:08;;;;;;;20.15;8.70;;;9.70;99.90;;;;;;5009967;28;20048;-79
2022/11/26 03:49:35;;;;;;;23.25;8.65;;;9.70;99.90;;;;;;5021034;28;20046;-79
2022/11/26 03:52:02;;;;;;;32.65;10.45;;;9.80;99.90;;;;;;5031605;28;20545;-79
2022/11/26 03:54:30;;;;;;;33.45;9.55;;;9.70;99.90;;;;;;5008783;28;20041;-79
2022/11/26 03:56:57;;;;;;;19.55;8.98;;;9.70;99.90;;;;;;5011337;28;20042;-79
2022/11/26 03:59:24;;;;;;;25.70;8.30;;;9.70;99.90;;;;;;5009954;28;20512;-79
2022/11/26 04:01:51;;;;;;;22.27;8.82;;;9.70;99.90;;;;;;5008878;28;20502;-79
2022/11/26 04:04:18;;;;;;;28.33;8.82;;;9.70;99.90;;;;;;4998532;28;20088;-79
2022/11/26 04:06:45;;;;;;;27.55;9.50;;;9.70;99.90;;;;;;5008796;28;20044;-79
2022/11/26 04:09:12;;;;;;;24.83;9.60;;;9.70;99.90;;;;;;5009124;28;20042;-79
2022/11/26 04:11:40;;;;;;;26.45;9.50;;;9.70;99.90;;;;;;5008832;28;20413;-79
2022/11/26 04:14:07;;;;;;;29.67;9.63;;;9.70;99.90;;;;;;5014100;28;20508;-79
2022/11/26 04:16:34;;;;;;;23.35;9.35;;;9.80;99.90;;;;;;5010839;28;20038;-79
2022/11/26 04:19:01;;;;;;;23.63;9.38;;;9.70;99.90;;;;;;5010669;28;20049;-79
2022/11/26 04:21:28;;;;;;;23.42;8.65;;;9.70;99.90;;;;;;5003766;28;20608;-79
2022/11/26 04:23:55;;;;;;;21.20;8.85;;;9.70;99.90;;;;;;5006832;28;20117;-80
2022/11/26 04:26:22;;;;;;;27.58;9.88;;;9.70;99.90;;;;;;4999479;28;20117;-79
2022/11/26 04:28:50;;;;;;;24.90;9.10;;;9.70;99.90;;;;;;5008497;28;20371;-79
2022/11/26 04:31:17;;;;;;;37.97;10.30;;;9.70;99.90;;;;;;5010997;28;20045;-79
2022/11/26 04:33:44;;;;;;;22.27;9.68;;;9.60;99.90;;;;;;5010338;28;20509;-79
2022/11/26 04:36:11;;;;;;;27.63;9.65;;;9.70;99.90;;;;;;5020494;28;20573;-79
2022/11/26 04:38:38;;;;;;;28.38;8.90;;;9.60;99.90;;;;;;5010541;28;20048;-79
2022/11/26 04:41:05;;;;;;;32.00;9.82;;;9.60;99.90;;;;;;5000251;28;20149;-79
2022/11/26 04:43:32;;;;;;;27.40;9.32;;;9.60;99.90;;;;;;5007076;28;20038;-80
2022/11/26 04:46:01;;;;;;;28.55;10.18;;;9.60;99.90;;;;;;5007562;28;20103;-79
2022/11/26 04:48:28;;;;;;;31.55;9.93;;;9.60;99.90;;;;;;5011573;28;20042;-79
2022/11/26 04:50:54;;;;;;;26.27;9.70;;;9.60;99.90;;;;;;5007684;28;20041;-79
2022/11/26 04:53:21;;;;;;;31.33;9.85;;;9.60;99.90;;;;;;5015462;28;20049;-79
2022/11/26 04:55:49;;;;;;;27.08;10.10;;;9.60;99.90;;;;;;5011101;28;20041;-79
2022/11/26 04:58:16;;;;;;;25.83;9.55;;;9.60;99.90;;;;;;5018432;28;20045;-79
2022/11/26 05:00:43;;;;;;;35.13;9.95;;;9.60;99.90;;;;;;5017914;28;20044;-79
2022/11/26 05:03:12;;;;;;;25.55;10.27;;;9.60;99.90;;;;;;5006981;28;20054;-79
2022/11/26 05:05:39;;;;;;;31.95;9.88;;;9.60;99.90;;;;;;5004348;28;20041;-79
2022/11/26 05:08:06;;;;;;;27.05;10.05;;;9.60;99.90;;;;;;5002628;28;20136;-80
2022/11/26 05:10:33;;;;;;;32.90;9.15;;;9.60;99.90;;;;;;5015529;28;20041;-79
2022/11/26 05:13:00;;;;;;;31.10;10.88;;;9.60;99.90;;;;;;5022584;28;20057;-79
2022/11/26 05:15:27;;;;;;;29.25;9.73;;;9.60;99.90;;;;;;5022128;28;20049;-80
2022/11/26 05:17:54;;;;;;;29.58;10.02;;;9.60;99.90;;;;;;5009337;28;20042;-79
2022/11/26 05:20:23;;;;;;;27.27;9.98;;;9.60;99.90;;;;;;5012530;28;20382;-79
2022/11/26 05:22:49;;;;;;;26.02;9.50;;;9.60;99.90;;;;;;5017480;28;20041;-79
2022/11/26 05:25:16;;;;;;;32.40;9.95;;;9.60;99.90;;;;;;5015951;28;20127;-79
2022/11/26 05:27:43;;;;;;;29.23;10.10;;;9.60;99.90;;;;;;5018919;28;20041;-79
2022/11/26 05:30:11;;;;;;;26.95;10.75;;;9.60;99.90;;;;;;5015239;28;20124;-79
2022/11/26 05:32:38;;;;;;;34.20;10.63;;;9.50;99.90;;;;;;5010681;28;20125;-79
2022/11/26 05:35:06;;;;;;;25.30;10.70;;;9.50;99.90;;;;;;5010750;28;20462;-80
2022/11/26 05:37:34;;;;;;;33.50;11.23;;;9.60;99.90;;;;;;5010895;28;20406;-79
2022/11/26 05:40:02;;;;;;;30.60;11.48;;;9.60;99.90;;;;;;4996637;28;20041;-79
2022/11/26 05:42:28;;;;;;;34.17;11.05;;;9.60;99.90;;;;;;5008192;28;20040;-79
2022/11/26 05:44:55;;;;;;;30.73;11.02;;;9.60;99.90;;;;;;5007540;28;20052;-79
2022/11/26 05:47:22;;;;;;;27.40;10.98;;;9.60;99.90;;;;;;5009185;28;20502;-79
2022/11/26 05:49:49;;;;;;;30.25;11.07;;;9.60;99.90;;;;;;5013610;28;20044;-79
2022/11/26 05:52:16;;;;;;;28.75;11.48;;;9.60;99.90;;;;;;5013827;28;20037;-80
2022/11/26 05:54:44;;;;;;;41.97;11.35;;;9.60;99.90;;;;;;5029043;28;20045;-79
2022/11/26 05:57:11;;;;;;;37.08;12.15;;;9.60;99.90;;;;;;4998583;28;20045;-79
2022/11/26 05:59:38;;;;;;;28.80;11.27;;;9.60;99.90;;;;;;5004676;28;20062;-80
2022/11/26 06:02:05;;;;;;;35.25;11.75;;;9.60;99.90;;;;;;5002174;28;20046;-79
2022/11/26 06:04:32;;;;;;;30.92;11.88;;;9.60;99.90;;;;;;5007704;28;20037;-79
2022/11/26 06:06:59;;;;;;;25.77;11.10;;;9.60;99.90;;;;;;5017720;28;20042;-79
2022/11/26 06:09:26;;;;;;;37.97;12.75;;;9.60;99.90;;;;;;5006964;28;20520;-80
2022/11/26 06:11:54;;;;;;;32.10;12.43;;;9.60;99.90;;;;;;5009423;28;20044;-79
2022/11/26 06:14:21;;;;;;;26.85;11.27;;;9.60;99.90;;;;;;5022787;28;20049;-79
2022/11/26 06:16:48;;;;;;;30.20;11.68;;;9.60;99.90;;;;;;5013143;28;20149;-79
2022/11/26 06:19:15;;;;;;;35.67;12.77;;;9.60;99.90;;;;;;5006865;28;20042;-79
2022/11/26 06:21:42;;;;;;;34.28;13.32;;;9.60;99.90;;;;;;4999678;28;20581;-79
2022/11/26 06:24:09;;;;;;;30.27;12.10;;;9.60;99.90;;;;;;5004372;28;20404;-79
2022/11/26 06:26:36;;;;;;;33.13;12.00;;;9.60;99.90;;;;;;5004818;28;20059;-83
2022/11/26 06:29:04;;;;;;;31.13;11.95;;;9.60;99.90;;;;;;5004612;28;20042;-80
2022/11/26 06:31:31;;;;;;;36.17;12.38;;;9.60;99.90;;;;;;5010943;28;20482;-78
2022/11/26 06:33:59;;;;;;;31.05;13.40;;;9.50;99.90;;;;;;5022586;28;20049;-78
2022/11/26 06:36:26;;;;;;;39.35;12.85;;;9.60;99.90;;;;;;5006953;28;20038;-77
2022/11/26 06:38:53;;;;;;;26.08;11.82;;;9.60;99.90;;;;;;5009394;28;20413;-77
2022/11/26 06:41:20;;;;;;;37.60;12.55;;;9.50;99.90;;;;;;5021134;28;20045;-77
2022/11/26 06:43:47;;;;;;;30.83;12.73;;;9.50;99.90;;;;;;5014868;28;20096;-77
2022/11/26 06:46:15;;;;;;;31.00;12.30;;;9.50;99.90;;;;;;5017828;28;20038;-78
2022/11/26 06:48:42;;;;;;;33.95;11.68;;;9.50;99.90;;;;;;5018993;28;20044;-78
2022/11/26 06:51:10;;;;;;;31.75;12.32;;;9.50;99.90;;;;;;5020509;28;20041;-78
2022/11/26 06:53:38;;;;;;;29.95;11.82;;;9.50;99.90;;;;;;5022677;28;20048;-77
2022/11/26 06:56:06;;;;;;;27.45;11.43;;;9.50;99.90;;;;;;5013735;28;20037;-81
2022/11/26 06:58:33;;;;;;;30.67;12.10;;;9.50;99.90;;;;;;5016195;28;20523;-83
2022/11/26 07:01:00;;;;;;;32.22;11.82;;;9.50;99.90;;;;;;5020166;28;20048;-82
2022/11/26 07:03:29;;;;;;;32.35;12.27;;;9.50;99.90;;;;;;5019791;28;20117;-83
2022/11/26 07:05:55;;;;;;;36.20;11.45;;;9.50;99.90;;;;;;5023701;28;20048;-83
2022/11/26 07:08:22;;;;;;;35.42;12.38;;;9.50;99.90;;;;;;5008421;28;20042;-84
2022/11/26 07:10:49;;;;;;;29.10;12.07;;;9.50;99.90;;;;;;5011174;28;20050;-82
2022/11/26 07:13:16;;;;;;;31.55;12.10;;;9.50;99.90;;;;;;5006671;28;20050;-83
2022/11/26 07:15:43;;;;;;;38.60;12.23;;;9.50;99.90;;;;;;5012082;28;20053;-83
2022/11/26 07:18:10;;;;;;;26.83;11.38;;;9.50;99.90;;;;;;5020813;28;20041;-84
2022/11/26 07:20:39;;;;;;;30.33;12.30;;;9.50;99.90;;;;;;5016661;28;20037;-86
2022/11/26 07:23:06;;;;;;;35.63;11.90;;;9.50;99.90;;;;;;5051574;22;20047;-83
2022/11/26 07:25:32;;;;;;;31.30;11.93;;;9.50;99.90;;;;;;5028454;28;20129;-84
2022/11/26 07:27:59;;;;;;;34.13;12.20;;;9.50;99.90;;;;;;5035510;28;20068;-83
2022/11/26 07:30:26;;;;;;;29.55;11.70;;;9.60;99.90;;;;;;5035837;28;20510;-83
2022/11/26 07:32:53;;;;;;;28.85;11.98;;;9.50;99.90;;;;;;5038663;28;20576;-84
2022/11/26 07:35:20;;;;;;;35.33;12.15;;;9.50;99.90;;;;;;5024977;28;20041;-83
2022/11/26 07:37:48;;;;;;;32.58;11.93;;;9.50;99.90;;;;;;5020618;28;20046;-83
2022/11/26 07:40:15;;;;;;;36.08;11.43;;;9.50;99.90;;;;;;5018431;28;20454;-83
2022/11/26 07:42:42;;;;;;;23.23;10.30;;;9.50;99.90;;;;;;5021787;28;20056;-83
2022/11/26 07:45:10;;;;;;;25.33;10.50;;;9.50;99.90;;;;;;5019770;28;20048;-83
2022/11/26 07:47:37;;;;;;;30.67;10.55;;;9.50;99.90;;;;;;5012298;28;20061;-83
2022/11/26 07:50:04;;;;;;;32.65;11.07;;;9.50;99.90;;;;;;5030012;28;20063;-83
2022/11/26 07:52:31;;;;;;;30.25;10.75;;;9.50;99.90;;;;;;5041001;28;20045;-83
2022/11/26 07:55:00;;;;;;;23.25;9.07;;;9.60;99.90;;;;;;5040486;28;20054;-83
2022/11/26 07:57:26;;;;;;;30.00;10.30;;;9.60;99.90;;;;;;5029991;28;20044;-84
2022/11/26 07:59:53;;;;;;;25.73;9.30;;;9.60;99.90;;;;;;5015807;28;20034;-83
2022/11/26 08:02:20;;;;;;;31.20;10.40;;;9.60;99.90;;;;;;5011360;28;20425;-84
2022/11/26 08:04:47;;;;;;;24.45;10.45;;;9.60;99.90;;;;;;5018213;28;20413;-80
2022/11/26 08:07:14;;;;;;;29.08;9.85;;;9.70;99.90;;;;;;5013442;28;20116;-80
2022/11/26 08:09:41;;;;;;;27.88;9.90;;;9.70;99.90;;;;;;5025182;28;20434;-80
2022/11/26 08:12:09;;;;;;;27.13;10.35;;;9.70;99.90;;;;;;5022111;28;20042;-86
2022/11/26 08:14:36;;;;;;;25.95;9.77;;;9.70;99.90;;;;;;5023648;28;20072;-81
2022/11/26 08:17:03;;;;;;;27.58;9.85;;;9.70;99.90;;;;;;5030340;28;20759;-81
2022/11/26 08:19:30;;;;;;;27.60;10.10;;;9.70;99.90;;;;;;5042263;28;20044;-81
2022/11/26 08:21:57;;;;;;;27.13;11.52;;;9.70;99.90;;;;;;5023718;28;20057;-80
2022/11/26 08:24:24;;;;;;;27.67;9.27;;;9.70;99.90;;;;;;5019393;28;20128;-80
2022/11/26 08:26:51;;;;;;;23.52;10.25;;;9.80;99.90;;;;;;5030349;28;20511;-81
2022/11/26 08:29:19;;;;;;;29.23;10.15;;;9.80;99.90;;;;;;5028956;28;20048;-81
2022/11/26 08:31:46;;;;;;;40.70;11.23;;;9.80;99.90;;;;;;5040516;28;20112;-81
2022/11/26 08:34:14;;;;;;;28.15;10.90;;;9.80;99.90;;;;;;5042457;28;20116;-81
2022/11/26 08:36:41;;;;;;;28.25;10.20;;;9.90;99.90;;;;;;5041632;28;20071;-81
2022/11/26 08:39:08;;;;;;;28.92;10.07;;;9.80;99.90;;;;;;5032433;28;20033;-80
2022/11/26 08:41:35;;;;;;;28.40;9.98;;;9.80;99.90;;;;;;5045411;28;20040;-81
2022/11/26 08:44:02;;;;;;;32.10;9.68;;;9.90;99.90;;;;;;5041622;28;20519;-80
2022/11/26 08:46:30;;;;;;;23.95;9.07;;;9.90;99.90;;;;;;5040100;28;20045;-80
2022/11/26 08:48:58;;;;;;;31.02;10.10;;;10.10;99.90;;;;;;5032244;28;20071;-80
2022/11/26 08:51:25;;;;;;;25.55;9.32;;;9.90;99.90;;;;;;5032240;28;20038;-81
2022/11/26 08:53:52;;;;;;;24.23;9.45;;;9.90;99.90;;;;;;5026921;28;20048;-81
2022/11/26 08:56:19;;;;;;;25.27;8.77;;;9.90;99.90;;;;;;5017407;28;20523;-79
2022/11/26 08:58:47;;;;;;;23.67;8.98;;;10.00;99.90;;;;;;5039425;28;20039;-79
2022/11/26 09:01:16;;;;;;;24.33;9.40;;;10.00;99.90;;;;;;5038787;28;20046;-81
2022/11/26 09:03:46;;;;;;;21.48;8.82;;;10.00;99.90;;;;;;5029358;28;20385;-81
2022/11/26 09:06:13;;;;;;;21.10;8.20;;;10.00;99.90;;;;;;5044873;28;20492;-81
2022/11/26 09:09:11;;;;;;;24.80;8.45;;;10.00;99.90;;;;;;5027147;28;20041;-81
2022/11/26 09:11:33;;;;;;;28.13;8.80;;;10.00;99.90;;;;;;5027509;28;20100;-79
2022/11/26 09:14:00;;;;;;;29.95;9.25;;;10.10;99.90;;;;;;5036619;28;20068;-84
2022/11/26 09:16:28;;;;;;;25.77;8.35;;;10.10;99.90;;;;;;5030662;28;20635;-79
2022/11/26 09:18:58;;;;;;;28.50;8.65;;;10.10;99.90;;;;;;5025357;28;20040;-80
2022/11/26 09:21:25;;;;;;;29.60;8.82;;;10.10;99.90;;;;;;5036953;28;20069;-80
2022/11/26 09:23:52;;;;;;;24.02;8.20;;;10.10;99.90;;;;;;5029427;28;20042;-78
2022/11/26 09:26:20;;;;;;;18.55;7.05;;;10.10;99.90;;;;;;5025750;28;20067;-78
2022/11/26 09:28:47;;;;;;;18.88;7.03;;;10.20;99.90;;;;;;5033974;28;20041;-78
2022/11/26 09:31:15;;;;;;;21.77;7.63;;;10.20;99.90;;;;;;5019708;28;20041;-77
2022/11/26 09:33:42;;;;;;;19.10;7.00;;;10.20;99.90;;;;;;5019389;28;20045;-78
2022/11/26 09:36:13;;;;;;;23.50;7.65;;;10.20;99.90;;;;;;5016926;28;20252;-78
2022/11/26 09:38:40;;;;;;;21.08;6.97;;;10.30;99.90;;;;;;5019955;28;20069;-78
2022/11/26 09:41:13;;;;;;;20.10;7.07;;;10.30;99.90;;;;;;5019052;28;20493;-78
2022/11/26 09:43:52;;;;;;;22.85;7.82;;;10.30;99.90;;;;;;5019071;28;20052;-78
2022/11/26 09:46:23;;;;;;;22.73;7.40;;;10.30;99.90;;;;;;5022247;28;20045;-77
2022/11/26 09:48:50;;;;;;;20.30;6.90;;;10.30;99.90;;;;;;5021915;28;20089;-78
2022/11/26 09:51:19;;;;;;;19.52;6.93;;;10.40;99.90;;;;;;5023431;28;20405;-80
2022/11/26 09:53:48;;;;;;;26.13;7.47;;;10.40;99.90;;;;;;5020793;28;20084;-78
2022/11/26 09:56:20;;;;;;;18.02;6.18;;;10.40;99.90;;;;;;5020122;28;20112;-81
2022/11/26 09:58:48;;;;;;;;;;;10.40;99.90;;;;;;5020082;28;20108;-79
2022/11/26 10:01:18;;;;;;;20.58;5.97;;;10.50;99.90;;;;;;5019333;28;19925;-79
2022/11/26 10:03:45;;;;;;;16.80;5.82;;;10.50;99.90;;;;;;5020112;28;20037;-80
2022/11/26 10:06:25;;;;;;;15.93;5.75;;;10.50;99.90;;;;;;5022015;28;20067;-79
2022/11/26 10:09:14;;;;;;;21.35;6.03;;;10.50;99.90;;;;;;5024104;28;20033;-79
2022/11/26 10:11:47;;;;;;;17.35;5.57;;;10.60;99.90;;;;;;5020082;28;20053;-79
2022/11/26 10:14:28;;;;;;;18.45;5.93;;;10.60;99.90;;;;;;5022362;28;20187;-79
2022/11/26 10:17:12;;;;;;;20.20;5.97;;;10.60;99.90;;;;;;5021117;28;20050;-78
2022/11/26 10:19:43;;;;;;;19.20;5.40;;;10.60;99.90;;;;;;5023093;28;20323;-79
2022/11/26 10:22:13;;;;;;;;;;;10.60;99.90;;;;;;5021182;28;20573;-78
2022/11/26 10:24:41;;;;;;;19.02;5.07;;;10.60;99.90;;;;;;5021552;28;19952;-79
2022/11/26 10:27:12;;;;;;;17.80;5.88;;;10.70;99.90;;;;;;5020496;28;20072;-79
2022/11/26 10:29:42;;;;;;;15.30;5.43;;;10.70;99.90;;;;;;5020734;28;20041;-80
2022/11/26 10:32:14;;;;;;;21.90;5.10;;;10.70;99.90;;;;;;5021275;28;20037;-79
2022/11/26 10:34:45;;;;;;;20.10;4.97;;;10.70;99.90;;;;;;5021320;28;20041;-78
2022/11/26 10:37:14;;;;;;;19.05;5.93;;;10.70;99.90;;;;;;5020165;28;20123;-82
2022/11/26 10:39:42;;;;;;;14.65;5.25;;;10.80;99.90;;;;;;5021732;28;20041;-79
2022/11/26 10:42:13;;;;;;;17.50;6.13;;;10.90;99.90;;;;;;5022662;28;20044;-79
2022/11/26 10:44:40;;;;;;;;;;;10.80;99.90;;;;;;5021515;28;20106;-79
2022/11/26 10:47:26;;;;;;;14.20;4.72;;;10.90;99.90;;;;;;5021887;28;19926;-79
2022/11/26 10:49:55;;;;;;;20.00;5.75;;;10.90;99.90;;;;;;5019235;28;20041;-78
2022/11/26 10:52:26;;;;;;;17.48;5.45;;;10.90;99.90;;;;;;5020305;28;20049;-79
2022/11/26 10:55:20;;;;;;;20.00;5.30;;;10.90;99.90;;;;;;5011903;28;20043;-78
2022/11/26 10:57:50;;;;;;;19.65;5.28;;;10.90;99.90;;;;;;5033039;28;20420;-79
2022/11/26 11:00:33;;;;;;;19.17;5.15;;;10.90;99.90;;;;;;5020086;28;20075;-78
2022/11/26 11:03:01;;;;;;;19.98;5.47;;;10.90;99.90;;;;;;5035874;28;20053;-79
2022/11/26 11:05:28;;;;;;;16.35;5.15;;;10.90;99.90;;;;;;5020579;28;20079;-77
2022/11/26 11:07:56;;;;;;;21.45;6.25;;;10.90;99.90;;;;;;5022930;28;20501;-78
2022/11/26 11:10:24;;;;;;;19.50;5.50;;;10.90;99.90;;;;;;5028392;28;20060;-78
2022/11/26 11:13:02;;;;;;;21.20;5.72;;;11.00;99.90;;;;;;5029189;28;20120;-78
2022/11/26 11:15:31;;;;;;;27.33;5.45;;;11.00;99.90;;;;;;5025228;28;20440;-81
2022/11/26 11:18:00;;;;;;;23.05;5.18;;;11.00;99.90;;;;;;5036359;28;20039;-80
2022/11/26 11:20:32;;;;;;;18.63;5.85;;;11.10;99.90;;;;;;5035698;28;20038;-80
2022/11/26 11:23:07;;;;;;;22.52;5.72;;;11.10;99.90;;;;;;5022245;28;20501;-81
2022/11/26 11:25:36;;;;;;;17.88;4.90;;;11.10;99.90;;;;;;5035991;28;20778;-81
2022/11/26 11:28:13;;;;;;;19.52;4.50;;;11.10;99.90;;;;;;5018309;28;20129;-81
2022/11/26 11:30:41;;;;;;;15.10;5.20;;;11.10;99.90;;;;;;5029821;28;20064;-84
2022/11/26 11:33:22;;;;;;;22.15;5.47;;;11.10;99.90;;;;;;5019608;28;20048;-80
2022/11/26 11:36:16;;;;;;;17.02;5.45;;;11.20;99.90;;;;;;5024031;28;20053;-79
2022/11/26 11:38:48;;;;;;;21.17;6.05;;;11.20;99.90;;;;;;5021449;28;20049;-79
2022/11/26 11:41:22;;;;;;;22.33;6.22;;;11.20;99.90;;;;;;5024064;28;20659;-78
2022/11/26 11:43:49;;;;;;;19.67;5.97;;;11.20;99.90;;;;;;5010492;28;20042;-79
2022/11/26 11:46:46;;;;;;;21.48;6.03;;;11.20;99.90;;;;;;5020585;28;20051;-78
2022/11/26 11:49:21;;;;;;;22.95;5.80;;;11.20;99.90;;;;;;5034661;28;20483;-78
2022/11/26 11:52:00;;;;;;;19.77;5.47;;;11.20;99.90;;;;;;5026892;28;20053;-78
2022/11/26 11:54:31;;;;;;;17.25;5.95;;;11.20;99.90;;;;;;5021803;28;20041;-78
2022/11/26 11:57:03;;;;;;;20.77;6.13;;;11.20;99.90;;;;;;5035222;28;20099;-78
2022/11/26 12:03:58;;;;;;;18.40;5.07;;;11.30;99.90;;;;;;5012468;28;20425;-78
2022/11/26 12:06:35;;;;;;;18.45;5.15;;;11.30;99.90;;;;;;5030570;28;20126;-79
2022/11/26 12:09:09;;;;;;;23.20;5.28;;;11.30;99.90;;;;;;5026623;28;20042;-78
2022/11/26 12:11:47;;;;;;;17.38;5.05;;;11.30;99.90;;;;;;5018575;28;20072;-78
2022/11/26 12:14:22;;;;;;;21.17;4.93;;;11.30;99.90;;;;;;5023555;28;20040;-79
2022/11/26 12:16:52;;;;;;;23.38;5.05;;;11.30;99.90;;;;;;5019360;28;20049;-79
2022/11/26 12:19:25;;;;;;;22.92;5.15;;;11.30;99.90;;;;;;5019212;28;20168;-79
2022/11/26 12:21:56;;;;;;;18.08;4.30;;;11.30;99.90;;;;;;5026076;28;20045;-78
2022/11/26 12:24:32;;;;;;;22.83;4.80;;;11.30;99.90;;;;;;5018657;28;20052;-79
2022/11/26 12:27:03;;;;;;;18.90;4.68;;;11.30;99.90;;;;;;5028468;28;20052;-77
2022/11/26 12:29:34;;;;;;;22.17;4.80;;;11.40;99.90;;;;;;5026870;28;20037;-84
2022/11/26 12:32:09;;;;;;;15.77;4.43;;;11.40;99.90;;;;;;5028800;28;20045;-79
2022/11/26 12:34:39;;;;;;;21.85;5.25;;;11.40;99.90;;;;;;5017697;28;20046;-80
2022/11/26 12:37:11;;;;;;;21.38;5.05;;;11.40;99.90;;;;;;5021473;28;20116;-81
2022/11/26 12:39:42;;;;;;;17.48;4.72;;;11.40;99.90;;;;;;5023682;28;20135;-80
2022/11/26 12:42:16;;;;;;;23.40;5.18;;;11.50;99.90;;;;;;5030694;28;20413;-80
2022/11/26 12:44:46;;;;;;;21.02;4.88;;;11.50;99.90;;;;;;5023163;28;20040;-81
2022/11/26 12:47:19;;;;;;;22.85;5.00;;;11.50;99.90;;;;;;5015114;28;20072;-81
2022/11/26 12:49:59;;;;;;;21.95;5.45;;;11.50;99.90;;;;;;5017048;28;20516;-81
2022/11/26 12:52:31;;;;;;;19.40;4.82;;;11.50;99.90;;;;;;5015361;28;20497;-80
2022/11/26 12:55:04;;;;;;;17.88;4.63;;;11.50;99.90;;;;;;5018586;28;20054;-80
2022/11/26 12:57:36;;;;;;;18.65;5.32;;;11.40;99.90;;;;;;5020914;28;20053;-80